Time;durP1;ratioP1;P1;durP2;ratioP2;P2;SDS_P1;SDS_P2;PMS_P1;PMS_P2;Temp;Humidity;BMP_temperature;BMP_pressure;BME280_temperature;BME280_humidity;BME280_pressure;Samples;Min_cycle;Max_cycle;Signal;HPM_P1;HPM_P2
2022/08/20 00:00:14;;;;;;;3.27;2.30;;;23.60;99.90;;;;;;5030720;28;20792;-73
2022/08/20 00:02:47;;;;;;;3.00;2.70;;;23.60;99.90;;;;;;5033535;28;20192;-74
2022/08/20 00:05:13;;;;;;;8.63;2.60;;;23.50;99.90;;;;;;5034715;28;20462;-74
2022/08/20 00:07:39;;;;;;;2.40;2.20;;;23.50;99.90;;;;;;5027479;28;20494;-75
2022/08/20 00:10:06;;;;;;;2.40;2.20;;;23.50;99.90;;;;;;5028485;28;20590;-74
2022/08/20 00:12:33;;;;;;;2.97;2.67;;;23.50;99.90;;;;;;5033608;28;20711;-74
2022/08/20 00:14:59;;;;;;;3.43;2.63;;;23.40;99.90;;;;;;5032284;28;20564;-74
2022/08/20 00:17:24;;;;;;;3.03;2.63;;;23.40;99.90;;;;;;5033019;28;20511;-75
2022/08/20 00:19:50;;;;;;;2.80;2.60;;;23.40;99.90;;;;;;5030007;28;20193;-72
2022/08/20 00:22:16;;;;;;;2.50;2.30;;;23.30;99.90;;;;;;5029099;28;20254;-74
2022/08/20 00:24:41;;;;;;;2.60;2.40;;;23.30;99.90;;;;;;5032754;28;20248;-73
2022/08/20 00:27:07;;;;;;;2.93;2.60;;;23.30;99.90;;;;;;5031998;28;20199;-73
2022/08/20 00:29:33;;;;;;;2.60;2.40;;;23.30;99.90;;;;;;5029145;28;20821;-72
2022/08/20 00:31:59;;;;;;;3.60;2.70;;;23.30;99.90;;;;;;5026839;28;20935;-74
2022/08/20 00:34:24;;;;;;;2.53;2.30;;;23.20;99.90;;;;;;5032656;28;20733;-74
2022/08/20 00:36:50;;;;;;;2.70;2.43;;;23.20;99.90;;;;;;5030602;28;20180;-75
2022/08/20 00:39:16;;;;;;;6.40;3.00;;;23.20;99.90;;;;;;5028978;28;20684;-75
2022/08/20 00:41:41;;;;;;;2.80;2.60;;;23.30;99.90;;;;;;5027945;28;20203;-75
2022/08/20 00:44:12;;;;;;;3.20;2.70;;;23.30;99.90;;;;;;5032387;28;20219;-76
2022/08/20 00:46:39;;;;;;;3.23;2.80;;;23.40;99.90;;;;;;5023597;28;20223;-75
2022/08/20 00:49:07;;;;;;;2.90;2.70;;;23.40;99.90;;;;;;5023648;28;21241;-75
2022/08/20 00:51:45;;;;;;;3.00;2.70;;;23.40;99.90;;;;;;5031177;28;20463;-74
2022/08/20 00:54:26;;;;;;;4.93;2.73;;;23.30;99.90;;;;;;5028986;28;20526;-74
2022/08/20 00:57:02;;;;;;;3.07;2.77;;;23.30;99.90;;;;;;5027196;28;20442;-73
2022/08/20 00:59:29;;;;;;;3.30;2.67;;;23.40;99.90;;;;;;5030151;28;20461;-73
2022/08/20 01:01:56;;;;;;;3.30;3.00;;;23.30;99.90;;;;;;5017457;28;20524;-72
2022/08/20 01:04:26;;;;;;;3.67;2.67;;;23.30;99.90;;;;;;5026181;28;20994;-75
2022/08/20 01:06:53;;;;;;;3.20;2.90;;;23.30;99.90;;;;;;5026157;28;21023;-74
2022/08/20 01:09:19;;;;;;;5.23;2.93;;;23.30;99.90;;;;;;5026373;28;20824;-73
2022/08/20 01:11:44;;;;;;;3.07;2.77;;;23.30;99.90;;;;;;5026808;28;20493;-73
2022/08/20 01:16:49;;;;;;;3.40;3.10;;;23.30;99.90;;;;;;5027382;28;20229;-73
2022/08/20 01:19:20;;;;;;;3.30;3.00;;;23.30;99.90;;;;;;5030110;28;20966;-74
2022/08/20 01:21:46;;;;;;;3.30;2.80;;;23.30;99.90;;;;;;5031342;28;20437;-72
2022/08/20 01:24:30;;;;;;;3.30;2.87;;;23.30;99.90;;;;;;5028288;28;20467;-72
2022/08/20 01:27:00;;;;;;;4.00;2.80;;;23.30;99.90;;;;;;5031346;28;20549;-72
2022/08/20 01:29:33;;;;;;;3.40;3.10;;;23.30;99.90;;;;;;5027012;28;21117;-72
2022/08/20 01:32:00;;;;;;;3.00;2.70;;;23.30;99.90;;;;;;5027682;28;20453;-73
2022/08/20 01:34:26;;;;;;;4.47;2.90;;;23.30;99.90;;;;;;5033503;28;20457;-73
2022/08/20 01:36:54;;;;;;;4.10;3.80;;;23.30;99.90;;;;;;5031335;28;20419;-74
2022/08/20 01:39:29;;;;;;;4.87;3.30;;;23.30;99.90;;;;;;5026876;28;20451;-73
2022/08/20 01:42:07;;;;;;;2.87;2.57;;;23.20;99.90;;;;;;5035234;28;20456;-75
2022/08/20 01:44:34;;;;;;;3.13;2.83;;;23.20;99.90;;;;;;5034576;28;20519;-75
2022/08/20 01:47:18;;;;;;;3.33;2.90;;;23.30;99.90;;;;;;5029073;28;20540;-73
2022/08/20 01:49:49;;;;;;;3.13;2.83;;;23.30;99.90;;;;;;5028078;28;20470;-73
2022/08/20 01:52:31;;;;;;;3.00;2.80;;;23.30;99.90;;;;;;5025099;28;20435;-74
2022/08/20 01:54:57;;;;;;;3.20;2.90;;;23.20;99.90;;;;;;5028792;28;20501;-74
2022/08/20 01:57:28;;;;;;;3.47;3.13;;;23.30;99.90;;;;;;5029365;28;20434;-73
2022/08/20 01:59:54;;;;;;;4.10;3.70;;;23.30;99.90;;;;;;5027920;28;20194;-73
2022/08/20 02:02:20;;;;;;;3.90;3.00;;;23.30;99.90;;;;;;5026244;28;20451;-74
2022/08/20 02:04:46;;;;;;;4.00;3.60;;;23.20;99.90;;;;;;5028950;28;20527;-72
2022/08/20 02:07:16;;;;;;;3.43;3.13;;;23.20;99.90;;;;;;5025992;28;20438;-75
2022/08/20 02:09:42;;;;;;;4.17;3.77;;;23.20;99.90;;;;;;5029269;28;20205;-74
2022/08/20 02:12:09;;;;;;;4.00;3.60;;;23.30;99.90;;;;;;5025555;28;20427;-76
2022/08/20 02:14:39;;;;;;;3.17;2.80;;;23.30;99.90;;;;;;5030116;28;20540;-74
2022/08/20 02:17:06;;;;;;;3.30;3.00;;;23.30;99.90;;;;;;5027487;28;20436;-74
2022/08/20 02:19:45;;;;;;;3.07;2.77;;;23.30;99.90;;;;;;5025233;28;21151;-74
2022/08/20 02:22:25;;;;;;;5.67;3.27;;;23.30;99.90;;;;;;5025339;28;20497;-76
2022/08/20 02:24:52;;;;;;;10.60;3.47;;;23.20;99.90;;;;;;5024858;28;20985;-74
2022/08/20 02:27:18;;;;;;;4.00;3.60;;;23.20;99.90;;;;;;5026258;28;20439;-75
2022/08/20 02:29:45;;;;;;;3.30;2.90;;;23.20;99.90;;;;;;5027075;28;20524;-75
2022/08/20 02:32:11;;;;;;;3.60;3.27;;;23.20;99.90;;;;;;5032808;28;20438;-74
2022/08/20 02:34:37;;;;;;;4.97;3.50;;;23.10;99.90;;;;;;5032867;28;20462;-73
2022/08/20 02:37:04;;;;;;;4.87;3.30;;;23.10;99.90;;;;;;5028712;28;20196;-73
2022/08/20 02:39:30;;;;;;;4.17;3.77;;;23.20;99.90;;;;;;5030506;28;20852;-74
2022/08/20 02:41:55;;;;;;;4.00;3.70;;;23.10;99.90;;;;;;5028903;28;20473;-73
2022/08/20 02:44:21;;;;;;;4.33;3.93;;;23.10;99.90;;;;;;5027470;28;20223;-74
2022/08/20 02:46:48;;;;;;;3.70;3.33;;;23.10;99.90;;;;;;5028838;28;20188;-74
2022/08/20 02:49:16;;;;;;;4.00;3.60;;;23.10;99.90;;;;;;5026874;28;20210;-75
2022/08/20 02:51:42;;;;;;;5.27;3.70;;;23.10;99.90;;;;;;5029534;28;20849;-73
2022/08/20 02:54:07;;;;;;;4.87;4.03;;;23.10;99.90;;;;;;5028301;28;20454;-73
2022/08/20 02:56:34;;;;;;;6.27;3.90;;;23.10;99.90;;;;;;5028595;28;20810;-77
2022/08/20 02:58:59;;;;;;;4.43;3.70;;;23.00;99.90;;;;;;5027780;28;20862;-76
2022/08/20 03:01:26;;;;;;;7.53;3.93;;;23.00;99.90;;;;;;5032461;28;20431;-76
2022/08/20 03:03:51;;;;;;;5.73;3.60;;;23.00;99.90;;;;;;5029279;28;20782;-75
2022/08/20 03:06:17;;;;;;;4.00;3.40;;;23.00;99.90;;;;;;5029268;28;20434;-75
2022/08/20 03:08:43;;;;;;;4.83;4.27;;;23.10;99.90;;;;;;5031111;28;20200;-75
2022/08/20 03:11:09;;;;;;;4.00;3.63;;;23.20;99.90;;;;;;5027543;28;20992;-75
2022/08/20 03:13:36;;;;;;;4.10;3.70;;;23.10;99.90;;;;;;5025072;28;20459;-74
2022/08/20 03:16:03;;;;;;;4.57;3.80;;;23.10;99.90;;;;;;5029676;28;20562;-74
2022/08/20 03:18:35;;;;;;;4.50;4.10;;;23.00;99.90;;;;;;5028061;28;20457;-74
2022/08/20 03:21:02;;;;;;;7.43;4.40;;;23.00;99.90;;;;;;5027252;28;20434;-74
2022/08/20 03:23:28;;;;;;;5.10;4.20;;;23.00;99.90;;;;;;5022968;28;20430;-74
2022/08/20 03:25:54;;;;;;;4.30;3.90;;;23.00;99.90;;;;;;5028570;28;20450;-73
2022/08/20 03:28:20;;;;;;;4.80;4.30;;;23.10;99.90;;;;;;5028093;28;20196;-72
2022/08/20 03:30:46;;;;;;;5.10;4.60;;;23.00;99.90;;;;;;5032261;28;20731;-74
2022/08/20 03:33:11;;;;;;;5.33;4.30;;;23.00;99.90;;;;;;5029326;28;20988;-75
2022/08/20 03:35:37;;;;;;;4.73;3.73;;;23.10;99.90;;;;;;5028528;28;20207;-73
2022/08/20 03:38:13;;;;;;;4.73;4.33;;;23.10;99.90;;;;;;5029894;28;20671;-73
2022/08/20 03:40:39;;;;;;;6.60;4.10;;;23.00;99.90;;;;;;5030061;28;20253;-74
2022/08/20 03:43:07;;;;;;;5.07;4.67;;;23.00;99.90;;;;;;5031199;28;20573;-75
2022/08/20 03:45:34;;;;;;;6.07;4.50;;;23.00;99.90;;;;;;5030199;28;20461;-74
2022/08/20 03:48:01;;;;;;;4.73;4.33;;;23.00;99.90;;;;;;5028590;28;20467;-73
2022/08/20 03:50:30;;;;;;;7.53;4.10;;;22.90;99.90;;;;;;5030400;28;20509;-74
2022/08/20 03:52:56;;;;;;;4.87;4.13;;;22.90;99.90;;;;;;5029851;28;20439;-75
2022/08/20 03:55:23;;;;;;;5.50;4.50;;;22.90;99.90;;;;;;5031445;28;20913;-74
2022/08/20 03:57:52;;;;;;;7.13;4.80;;;22.80;99.90;;;;;;5028842;28;20530;-75
2022/08/20 04:00:25;;;;;;;6.63;5.53;;;22.90;99.90;;;;;;5032724;28;21196;-74
2022/08/20 04:02:51;;;;;;;5.80;5.23;;;22.90;99.90;;;;;;5032316;28;20796;-74
2022/08/20 04:05:17;;;;;;;6.33;4.73;;;22.80;99.90;;;;;;5030804;28;20458;-73
2022/08/20 04:07:43;;;;;;;5.40;4.90;;;22.80;99.90;;;;;;5027017;28;20199;-73
2022/08/20 04:10:10;;;;;;;7.20;5.10;;;22.90;99.90;;;;;;5034659;28;20466;-73
2022/08/20 04:12:40;;;;;;;6.07;4.60;;;22.90;99.90;;;;;;5034847;28;20430;-75
2022/08/20 04:15:16;;;;;;;5.13;4.00;;;22.90;99.90;;;;;;5031375;28;20458;-73
2022/08/20 04:17:47;;;;;;;5.23;4.50;;;22.90;99.90;;;;;;5029990;28;20439;-73
2022/08/20 04:20:17;;;;;;;5.10;4.60;;;22.90;99.90;;;;;;5029387;28;20433;-73
2022/08/20 04:22:45;;;;;;;5.60;5.10;;;22.80;99.90;;;;;;5030363;28;20441;-73
2022/08/20 04:25:11;;;;;;;6.40;5.10;;;22.70;99.90;;;;;;5026867;28;20463;-73
2022/08/20 04:27:38;;;;;;;6.00;4.93;;;22.70;99.90;;;;;;5030366;28;21129;-72
2022/08/20 04:30:09;;;;;;;5.10;4.60;;;22.70;99.90;;;;;;5023827;28;20982;-73
2022/08/20 04:32:36;;;;;;;5.13;4.63;;;22.70;99.90;;;;;;5028784;28;20439;-74
2022/08/20 04:35:06;;;;;;;5.97;4.73;;;22.70;99.90;;;;;;5029096;28;20446;-74
2022/08/20 04:37:32;;;;;;;7.23;5.10;;;22.60;99.90;;;;;;5031276;28;20475;-72
2022/08/20 04:42:50;;;;;;;5.10;4.50;;;22.60;99.90;;;;;;5029958;28;20584;-74
2022/08/20 04:45:16;;;;;;;5.33;4.83;;;22.60;99.90;;;;;;5027697;28;21155;-74
2022/08/20 04:47:42;;;;;;;5.77;5.07;;;22.60;99.90;;;;;;5028679;28;20993;-73
2022/08/20 04:50:10;;;;;;;5.00;4.60;;;22.60;99.90;;;;;;5026807;28;20467;-74
2022/08/20 04:52:36;;;;;;;6.97;5.10;;;22.60;99.90;;;;;;5030663;28;20199;-74
2022/08/20 04:55:04;;;;;;;5.10;4.60;;;22.60;99.90;;;;;;5025339;28;20463;-73
2022/08/20 04:57:30;;;;;;;5.07;4.57;;;22.60;99.90;;;;;;5026999;28;20467;-72
2022/08/20 04:59:55;;;;;;;5.40;4.90;;;22.60;99.90;;;;;;5030701;28;20437;-73
2022/08/20 05:02:21;;;;;;;5.20;4.60;;;22.60;99.90;;;;;;5030158;28;20439;-73
2022/08/20 05:04:47;;;;;;;6.10;4.80;;;22.60;99.90;;;;;;5028128;28;20755;-73
2022/08/20 05:07:19;;;;;;;5.30;4.63;;;22.60;99.90;;;;;;5025944;28;20188;-72
2022/08/20 05:09:45;;;;;;;5.53;4.40;;;22.60;99.90;;;;;;5028875;28;20195;-72
2022/08/20 05:12:18;;;;;;;5.20;4.70;;;22.50;99.90;;;;;;5031993;28;20442;-71
2022/08/20 05:14:44;;;;;;;6.33;5.00;;;22.50;99.90;;;;;;5030525;28;20207;-72
2022/08/20 05:17:13;;;;;;;6.13;5.20;;;22.40;99.90;;;;;;5026018;28;21182;-73
2022/08/20 05:19:40;;;;;;;6.23;5.00;;;22.30;99.90;;;;;;5028568;28;20495;-73
2022/08/20 05:22:06;;;;;;;5.60;5.00;;;22.30;99.90;;;;;;5027531;28;20431;-73
2022/08/20 05:24:32;;;;;;;7.23;5.00;;;22.30;99.90;;;;;;5026544;28;20993;-73
2022/08/20 05:27:00;;;;;;;5.63;5.13;;;22.30;99.90;;;;;;5026210;28;20449;-72
2022/08/20 05:29:27;;;;;;;7.10;5.53;;;22.20;99.90;;;;;;5023998;28;20631;-73
2022/08/20 05:31:55;;;;;;;5.73;5.03;;;22.20;99.90;;;;;;5026973;28;20445;-73
2022/08/20 05:34:21;;;;;;;5.37;4.87;;;22.20;99.90;;;;;;5035093;28;20466;-73
2022/08/20 05:36:50;;;;;;;7.07;4.90;;;22.30;99.90;;;;;;5030014;28;20539;-73
2022/08/20 05:39:17;;;;;;;4.57;4.17;;;22.40;99.90;;;;;;5026743;28;20596;-73
2022/08/20 05:41:43;;;;;;;5.60;5.00;;;22.40;99.90;;;;;;5026978;28;20470;-74
2022/08/20 05:44:12;;;;;;;5.27;4.57;;;22.40;99.90;;;;;;5028358;28;20910;-73
2022/08/20 05:46:39;;;;;;;5.10;4.60;;;22.50;99.90;;;;;;5028416;28;20183;-73
2022/08/20 05:49:06;;;;;;;5.20;4.70;;;22.50;99.90;;;;;;5029762;28;20454;-72
2022/08/20 05:51:32;;;;;;;5.80;5.20;;;22.50;99.90;;;;;;5024448;28;20435;-71
2022/08/20 05:53:57;;;;;;;5.27;4.80;;;22.60;99.90;;;;;;5028331;28;20859;-73
2022/08/20 05:56:23;;;;;;;9.40;5.17;;;22.60;99.90;;;;;;5031244;28;20180;-73
2022/08/20 05:58:49;;;;;;;5.40;4.63;;;22.60;99.90;;;;;;5030634;28;20807;-72
2022/08/20 06:01:14;;;;;;;4.77;4.37;;;22.60;99.90;;;;;;5025191;28;20208;-73
2022/08/20 06:06:38;;;;;;;5.90;5.40;;;22.60;99.90;;;;;;5037172;28;20192;-74
2022/08/20 06:09:04;;;;;;;6.17;4.87;;;22.70;99.90;;;;;;5031994;28;20467;-74
2022/08/20 06:11:30;;;;;;;5.20;4.70;;;22.80;99.90;;;;;;5029991;28;20426;-73
2022/08/20 06:13:55;;;;;;;5.77;5.17;;;22.80;99.90;;;;;;5029150;28;20171;-73
2022/08/20 06:16:21;;;;;;;5.83;4.57;;;22.80;99.90;;;;;;5029846;28;20191;-74
2022/08/20 06:18:47;;;;;;;6.10;5.17;;;23.00;99.90;;;;;;5042754;28;20269;-75
2022/08/20 06:21:12;;;;;;;5.37;4.87;;;23.00;99.90;;;;;;5025136;28;20297;-75
2022/08/20 06:23:38;;;;;;;5.03;4.57;;;22.90;99.90;;;;;;5023234;28;20668;-75
2022/08/20 06:26:05;;;;;;;5.20;4.70;;;22.90;99.90;;;;;;5027261;28;20204;-75
2022/08/20 06:28:31;;;;;;;5.73;5.23;;;22.90;99.90;;;;;;5028320;28;20176;-73
2022/08/20 06:30:56;;;;;;;5.70;5.00;;;22.90;99.90;;;;;;5023461;28;20612;-75
2022/08/20 06:33:22;;;;;;;6.53;4.47;;;23.00;99.90;;;;;;5027555;28;20468;-74
2022/08/20 06:35:48;;;;;;;7.23;4.30;;;23.00;99.90;;;;;;5026928;28;20272;-73
2022/08/20 06:38:13;;;;;;;5.10;4.60;;;22.90;99.90;;;;;;5024758;28;20188;-74
2022/08/20 06:40:39;;;;;;;6.17;5.10;;;22.90;99.90;;;;;;5031662;28;20187;-74
2022/08/20 06:43:07;;;;;;;5.93;4.90;;;22.80;99.90;;;;;;5026528;28;20218;-73
2022/08/20 06:45:34;;;;;;;5.30;4.80;;;22.80;99.90;;;;;;5022278;28;20601;-74
2022/08/20 06:48:06;;;;;;;5.30;4.80;;;22.90;99.90;;;;;;5026104;28;20816;-74
2022/08/20 06:50:38;;;;;;;5.10;4.60;;;22.90;99.90;;;;;;5027958;28;20462;-74
2022/08/20 06:53:11;;;;;;;5.77;5.23;;;22.90;99.90;;;;;;5026162;28;20517;-74
2022/08/20 06:55:40;;;;;;;6.60;4.60;;;23.00;99.90;;;;;;5029148;28;20526;-75
2022/08/20 06:58:08;;;;;;;8.70;5.00;;;23.00;99.90;;;;;;5021647;28;20426;-74
2022/08/20 07:00:36;;;;;;;6.80;4.80;;;23.10;99.90;;;;;;5027528;28;20443;-74
2022/08/20 07:03:03;;;;;;;5.43;4.63;;;23.10;99.90;;;;;;5025079;28;20523;-74
2022/08/20 07:05:31;;;;;;;5.83;4.53;;;23.10;99.90;;;;;;5031162;28;20472;-75
2022/08/20 07:07:56;;;;;;;5.03;4.53;;;23.20;99.90;;;;;;5024244;28;21061;-74
2022/08/20 07:10:24;;;;;;;5.13;4.27;;;23.20;99.90;;;;;;5028980;28;20469;-75
2022/08/20 07:12:50;;;;;;;6.07;5.47;;;23.20;99.90;;;;;;5028625;28;20200;-74
2022/08/20 07:15:17;;;;;;;5.03;3.70;;;23.30;99.90;;;;;;5027373;28;20496;-74
2022/08/20 07:17:51;;;;;;;4.87;4.37;;;23.40;99.90;;;;;;5031604;28;20431;-75
2022/08/20 07:20:18;;;;;;;10.10;3.77;;;23.50;99.90;;;;;;5028393;28;20448;-74
2022/08/20 07:22:44;;;;;;;4.97;4.30;;;23.70;99.90;;;;;;5025936;28;20478;-74
2022/08/20 07:25:11;;;;;;;4.90;4.50;;;23.70;99.90;;;;;;5028247;28;20491;-75
2022/08/20 07:27:38;;;;;;;5.20;3.97;;;23.80;99.90;;;;;;5027019;28;20184;-76
2022/08/20 07:32:49;;;;;;;5.00;3.70;;;24.00;99.90;;;;;;5035277;28;20437;-75
2022/08/20 07:35:17;;;;;;;8.53;3.70;;;24.00;99.90;;;;;;5028198;28;20446;-76
2022/08/20 07:37:47;;;;;;;3.50;3.13;;;24.00;99.90;;;;;;5025132;28;20947;-74
2022/08/20 07:40:17;;;;;;;4.07;3.67;;;24.00;99.90;;;;;;5031908;28;20439;-71
2022/08/20 07:42:42;;;;;;;3.97;3.57;;;24.00;99.90;;;;;;5027701;28;21025;-71
2022/08/20 07:45:14;;;;;;;5.43;3.37;;;24.00;99.90;;;;;;5028414;28;20466;-70
2022/08/20 07:47:41;;;;;;;5.27;4.27;;;24.00;99.90;;;;;;5026839;28;20205;-71
2022/08/20 07:50:09;;;;;;;4.10;3.70;;;24.10;99.90;;;;;;5033555;28;20862;-71
2022/08/20 07:52:35;;;;;;;4.47;3.40;;;24.20;99.90;;;;;;5028913;28;20430;-71
2022/08/20 07:55:09;;;;;;;4.07;3.60;;;24.20;99.90;;;;;;5031670;28;20508;-71
2022/08/20 07:57:36;;;;;;;3.60;3.30;;;24.10;99.90;;;;;;5029859;28;20639;-72
2022/08/20 08:00:03;;;;;;;4.27;3.87;;;24.10;99.90;;;;;;5034276;28;20766;-71
2022/08/20 08:02:29;;;;;;;3.50;3.20;;;24.00;99.90;;;;;;5028974;28;20948;-69
2022/08/20 08:04:55;;;;;;;4.60;3.80;;;24.00;99.90;;;;;;5032466;28;20453;-71
2022/08/20 08:07:22;;;;;;;3.63;3.33;;;23.90;99.90;;;;;;5033502;28;20228;-71
2022/08/20 08:09:48;;;;;;;3.73;3.40;;;23.90;99.90;;;;;;5032100;28;20577;-70
2022/08/20 08:12:15;;;;;;;5.40;3.90;;;23.60;99.90;;;;;;5027573;28;20435;-72
2022/08/20 08:14:43;;;;;;;7.03;3.30;;;23.50;99.90;;;;;;5035166;28;20540;-71
2022/08/20 08:17:11;;;;;;;4.00;3.60;;;23.50;99.90;;;;;;5033182;28;20429;-70
2022/08/20 08:19:40;;;;;;;4.07;3.67;;;23.40;99.90;;;;;;5031523;28;20937;-72
2022/08/20 08:22:11;;;;;;;3.37;3.03;;;23.40;99.90;;;;;;5027656;28;20490;-72
2022/08/20 08:24:37;;;;;;;4.73;3.73;;;23.40;99.90;;;;;;5029672;28;20450;-71
2022/08/20 08:27:03;;;;;;;3.97;3.40;;;23.30;99.90;;;;;;5028718;28;20432;-72
2022/08/20 08:29:29;;;;;;;5.63;3.77;;;23.20;99.90;;;;;;5030516;28;20449;-72
2022/08/20 08:31:55;;;;;;;3.80;3.47;;;23.00;99.90;;;;;;5026254;28;20434;-71
2022/08/20 08:34:24;;;;;;;5.13;4.30;;;23.10;99.90;;;;;;5024536;28;20218;-72
2022/08/20 08:36:50;;;;;;;5.53;3.97;;;23.10;99.90;;;;;;5030720;28;20458;-69
2022/08/20 08:39:16;;;;;;;4.30;3.90;;;23.10;99.90;;;;;;5029154;28;20783;-69
2022/08/20 08:41:47;;;;;;;4.50;4.00;;;23.20;99.90;;;;;;5019562;28;20435;-69
2022/08/20 08:44:23;;;;;;;5.00;3.90;;;23.30;99.90;;;;;;5024528;28;20451;-70
2022/08/20 08:47:17;;;;;;;4.97;3.77;;;23.30;99.90;;;;;;5023582;28;20443;-69
2022/08/20 08:49:45;;;;;;;4.90;3.93;;;23.50;99.90;;;;;;5022508;28;20462;-68
2022/08/20 08:52:18;;;;;;;4.93;3.83;;;23.50;99.90;;;;;;5022686;28;20437;-69
2022/08/20 08:54:48;;;;;;;4.60;3.30;;;23.60;99.90;;;;;;5025792;28;20553;-69
2022/08/20 08:57:16;;;;;;;5.50;3.90;;;23.60;99.90;;;;;;5025752;28;20426;-69
2022/08/20 08:59:50;;;;;;;4.00;3.30;;;23.60;99.90;;;;;;5023061;28;20849;-69
2022/08/20 09:02:21;;;;;;;4.00;3.60;;;23.60;99.90;;;;;;5025619;28;20480;-69
2022/08/20 09:04:47;;;;;;;4.40;3.80;;;23.60;99.90;;;;;;5024760;28;20505;-71
2022/08/20 09:07:15;;;;;;;3.57;3.27;;;23.60;99.90;;;;;;5025306;28;20435;-70
2022/08/20 09:09:43;;;;;;;5.20;3.30;;;23.60;99.90;;;;;;5024846;28;20208;-70
2022/08/20 09:12:17;;;;;;;3.20;2.90;;;23.60;99.90;;;;;;5025012;28;20426;-69
2022/08/20 09:14:44;;;;;;;3.33;3.03;;;23.70;99.90;;;;;;5022562;28;20474;-69
2022/08/20 09:17:10;;;;;;;3.33;3.03;;;23.70;99.90;;;;;;5019558;28;20575;-69
2022/08/20 09:19:36;;;;;;;3.47;3.10;;;23.80;99.90;;;;;;5022679;28;20534;-69
2022/08/20 09:22:15;;;;;;;4.80;3.17;;;23.80;99.90;;;;;;5021506;28;20573;-75
2022/08/20 09:24:41;;;;;;;3.73;3.40;;;23.90;99.90;;;;;;5023630;28;20278;-70
2022/08/20 09:27:07;;;;;;;4.90;3.37;;;23.90;99.90;;;;;;5028147;28;20431;-70
2022/08/20 09:29:34;;;;;;;3.93;3.40;;;23.90;99.90;;;;;;5020831;28;20497;-70
2022/08/20 09:32:13;;;;;;;3.30;3.00;;;24.00;99.90;;;;;;5021039;28;20530;-71
2022/08/20 09:34:41;;;;;;;5.63;3.40;;;24.30;99.90;;;;;;5026255;28;21049;-69
2022/08/20 09:37:07;;;;;;;3.60;3.00;;;24.30;99.90;;;;;;5022383;28;20568;-70
2022/08/20 09:39:33;;;;;;;3.50;3.20;;;24.50;99.90;;;;;;5024923;28;20500;-70
2022/08/20 09:42:10;;;;;;;3.40;3.07;;;24.60;99.90;;;;;;5024838;28;20433;-70
2022/08/20 09:44:36;;;;;;;4.20;3.57;;;24.80;99.90;;;;;;5027028;28;20474;-70
2022/08/20 09:47:02;;;;;;;2.97;2.67;;;24.70;99.90;;;;;;5029153;28;20434;-70
2022/08/20 09:49:27;;;;;;;2.77;2.53;;;24.70;99.90;;;;;;5027307;28;20239;-69
2022/08/20 09:51:53;;;;;;;2.80;2.57;;;24.70;99.90;;;;;;5027072;28;20614;-69
2022/08/20 09:54:20;;;;;;;2.70;2.50;;;24.80;99.90;;;;;;5032768;28;20292;-71
2022/08/20 09:56:45;;;;;;;3.23;2.90;;;24.90;99.90;;;;;;5030395;28;20285;-71
2022/08/20 09:59:14;;;;;;;3.00;2.73;;;25.00;99.90;;;;;;5027428;28;20504;-70
2022/08/20 10:01:39;;;;;;;2.60;2.40;;;24.90;99.90;;;;;;5028260;28;20176;-71
2022/08/20 10:04:05;;;;;;;3.43;2.67;;;24.90;99.90;;;;;;5021847;28;20443;-70
2022/08/20 10:06:31;;;;;;;3.43;2.43;;;24.80;99.90;;;;;;5024683;28;20263;-71
2022/08/20 10:08:56;;;;;;;2.70;2.50;;;24.80;99.90;;;;;;5014773;28;20204;-71
2022/08/20 10:11:22;;;;;;;3.20;2.90;;;24.90;99.90;;;;;;5022135;28;20611;-71
2022/08/20 10:13:48;;;;;;;2.60;2.40;;;25.10;99.90;;;;;;5023943;28;20596;-71
2022/08/20 10:16:13;;;;;;;2.80;2.60;;;25.20;99.90;;;;;;5019628;28;20427;-70
2022/08/20 10:18:39;;;;;;;2.70;2.50;;;25.40;99.90;;;;;;5021993;28;20667;-71
2022/08/20 10:21:11;;;;;;;3.57;2.50;;;25.50;99.90;;;;;;5020912;28;20194;-70
2022/08/20 10:23:37;;;;;;;2.90;2.70;;;25.50;99.90;;;;;;5020210;28;21501;-71
2022/08/20 10:26:03;;;;;;;2.73;2.53;;;25.60;99.90;;;;;;5015945;28;20461;-70
2022/08/20 10:28:28;;;;;;;2.93;2.57;;;25.70;99.90;;;;;;5019804;28;20179;-71
2022/08/20 10:30:54;;;;;;;3.17;2.87;;;25.70;99.90;;;;;;5019642;28;20285;-70
2022/08/20 10:33:20;;;;;;;3.77;2.80;;;25.70;99.90;;;;;;5020012;28;20274;-70
2022/08/20 10:35:45;;;;;;;2.77;2.57;;;25.70;99.90;;;;;;5021634;28;20256;-70
2022/08/20 10:38:11;;;;;;;2.57;2.37;;;25.70;99.90;;;;;;5018498;28;20188;-71
2022/08/20 10:40:36;;;;;;;2.60;2.40;;;25.80;99.90;;;;;;5022444;28;20716;-71
2022/08/20 10:43:02;;;;;;;2.43;2.23;;;25.90;99.90;;;;;;5021835;28;20179;-70
2022/08/20 10:45:28;;;;;;;3.43;2.47;;;26.10;99.90;;;;;;5027416;28;20204;-75
2022/08/20 10:47:53;;;;;;;4.00;3.43;;;26.20;99.90;;;;;;5021809;28;20180;-72
2022/08/20 10:50:19;;;;;;;2.90;2.70;;;26.60;99.90;;;;;;5023313;28;20312;-71
2022/08/20 10:52:46;;;;;;;3.67;3.37;;;26.80;99.90;;;;;;5020509;28;20173;-71
2022/08/20 10:55:11;;;;;;;2.90;2.60;;;26.80;99.90;;;;;;5023368;28;20994;-71
2022/08/20 10:57:39;;;;;;;2.67;2.47;;;26.70;99.90;;;;;;5029074;28;20434;-71
2022/08/20 11:00:07;;;;;;;2.70;2.50;;;26.60;99.90;;;;;;5034522;28;20273;-71
2022/08/20 11:02:33;;;;;;;2.50;2.30;;;26.40;99.90;;;;;;5035554;28;20445;-71
2022/08/20 11:04:58;;;;;;;3.67;2.70;;;26.40;99.90;;;;;;5031257;28;20442;-71
2022/08/20 11:07:32;;;;;;;2.70;2.50;;;26.30;99.90;;;;;;5029140;28;20187;-71
2022/08/20 11:09:58;;;;;;;5.67;3.00;;;26.20;99.90;;;;;;5028057;28;20272;-71
2022/08/20 11:12:23;;;;;;;2.90;2.70;;;26.10;99.90;;;;;;5027704;28;20450;-71
2022/08/20 11:14:50;;;;;;;3.07;2.60;;;26.20;99.90;;;;;;5031717;28;21326;-71
2022/08/20 11:17:20;;;;;;;5.07;3.27;;;26.20;99.90;;;;;;5032974;28;20596;-71
2022/08/20 11:19:45;;;;;;;3.10;2.80;;;26.30;99.90;;;;;;5028346;28;20446;-71
2022/08/20 11:22:11;;;;;;;3.73;2.70;;;26.30;99.90;;;;;;5024039;28;20438;-71
2022/08/20 11:24:37;;;;;;;3.50;3.10;;;26.40;99.90;;;;;;5030078;28;20204;-72
2022/08/20 11:27:06;;;;;;;2.90;2.70;;;26.50;99.90;;;;;;5028019;28;20190;-72
2022/08/20 11:29:32;;;;;;;4.60;3.17;;;26.50;99.90;;;;;;5033370;28;20458;-72
2022/08/20 11:31:58;;;;;;;3.23;2.90;;;26.50;99.90;;;;;;5032181;28;20434;-72
2022/08/20 11:34:24;;;;;;;3.30;2.67;;;26.50;99.90;;;;;;5029865;28;20452;-72
2022/08/20 11:36:50;;;;;;;2.87;2.60;;;26.40;99.90;;;;;;5026296;28;20183;-71
2022/08/20 11:39:16;;;;;;;2.60;2.40;;;26.40;99.90;;;;;;5026275;28;20351;-71
2022/08/20 11:41:42;;;;;;;3.47;2.70;;;26.40;99.90;;;;;;5027137;28;20521;-71
2022/08/20 11:44:07;;;;;;;2.63;2.17;;;26.50;99.90;;;;;;5026857;28;20414;-71
2022/08/20 11:46:33;;;;;;;2.87;2.57;;;26.60;99.90;;;;;;5023791;28;20314;-71
2022/08/20 11:49:00;;;;;;;2.43;2.23;;;26.40;99.90;;;;;;5032968;28;20188;-71
2022/08/20 11:51:25;;;;;;;2.30;2.10;;;26.40;99.90;;;;;;5031168;28;20180;-71
2022/08/20 11:53:51;;;;;;;2.20;2.00;;;26.30;99.90;;;;;;5024963;28;21139;-71
2022/08/20 11:56:18;;;;;;;2.10;1.83;;;26.50;99.90;;;;;;5031074;28;20179;-71
2022/08/20 11:58:44;;;;;;;2.37;2.17;;;26.70;99.90;;;;;;5027803;28;20181;-71
2022/08/20 12:01:11;;;;;;;3.87;1.93;;;26.60;99.90;;;;;;5027479;28;20437;-71
2022/08/20 12:03:36;;;;;;;2.13;1.93;;;26.80;99.90;;;;;;5028651;28;20522;-72
2022/08/20 12:06:02;;;;;;;2.23;2.03;;;27.20;99.90;;;;;;5027469;28;20661;-71
2022/08/20 12:08:28;;;;;;;2.40;2.20;;;27.80;99.90;;;;;;5023714;28;20193;-71
2022/08/20 12:10:59;;;;;;;2.30;1.90;;;28.50;99.90;;;;;;5020224;28;20327;-71
2022/08/20 12:13:27;;;;;;;2.10;1.90;;;29.20;99.90;;;;;;5025965;28;20232;-71
2022/08/20 12:15:53;;;;;;;3.80;2.03;;;29.90;99.90;;;;;;5023073;28;20480;-72
2022/08/20 12:18:19;;;;;;;2.97;2.00;;;30.10;99.90;;;;;;5031972;28;20477;-71
2022/08/20 12:20:45;;;;;;;2.20;2.00;;;30.40;99.30;;;;;;5026688;28;20545;-72
2022/08/20 12:23:10;;;;;;;2.17;1.97;;;30.50;98.00;;;;;;5030132;28;20442;-72
2022/08/20 12:25:36;;;;;;;2.00;1.80;;;30.20;97.20;;;;;;5023418;28;20242;-71
2022/08/20 12:28:03;;;;;;;2.20;2.00;;;29.90;97.00;;;;;;5031761;28;20192;-71
2022/08/20 12:30:30;;;;;;;2.30;2.00;;;29.80;96.90;;;;;;5029091;28;20839;-71
2022/08/20 12:32:56;;;;;;;2.10;1.90;;;29.90;96.30;;;;;;5028405;28;21012;-72
2022/08/20 12:35:22;;;;;;;2.23;1.80;;;30.30;95.20;;;;;;5025792;28;20465;-71
2022/08/20 12:37:47;;;;;;;2.10;1.90;;;30.60;93.80;;;;;;5027363;28;20955;-71
2022/08/20 12:40:17;;;;;;;2.07;1.80;;;30.70;92.40;;;;;;5028149;28;20204;-71
2022/08/20 12:42:43;;;;;;;2.03;1.83;;;31.20;91.30;;;;;;5028302;28;20439;-70
2022/08/20 12:45:09;;;;;;;2.00;1.80;;;31.30;89.40;;;;;;5026000;28;20532;-71
2022/08/20 12:47:38;;;;;;;4.00;2.40;;;31.20;89.60;;;;;;5030212;28;20180;-71
2022/08/20 12:50:08;;;;;;;3.90;2.00;;;31.60;86.70;;;;;;5028804;28;20587;-72
2022/08/20 12:52:34;;;;;;;2.00;1.80;;;31.40;85.00;;;;;;5034605;28;20918;-72
2022/08/20 12:55:01;;;;;;;2.50;2.30;;;31.00;84.90;;;;;;5025361;28;20413;-71
2022/08/20 12:57:35;;;;;;;3.90;2.20;;;31.40;84.70;;;;;;5023305;28;21069;-71
2022/08/20 13:00:10;;;;;;;1.90;1.70;;;30.70;84.40;;;;;;5026108;28;20438;-72